sensor_id;sensor_type;location;lat;lon;timestamp;P1;durP1;ratioP1;P2;durP2;ratioP2
40959;SDS011;27842;52.272;8.052;2022-12-26T00:01:32;21.23;;;10.70;;
40959;SDS011;27842;52.272;8.052;2022-12-26T00:04:00;20.25;;;10.32;;
40959;SDS011;27842;52.272;8.052;2022-12-26T00:06:27;20.95;;;9.93;;
40959;SDS011;27842;52.272;8.052;2022-12-26T00:08:54;21.80;;;10.45;;
40959;SDS011;27842;52.272;8.052;2022-12-26T00:11:21;20.30;;;10.20;;
40959;SDS011;27842;52.272;8.052;2022-12-26T00:13:52;20.42;;;10.32;;
40959;SDS011;27842;52.272;8.052;2022-12-26T00:16:19;22.67;;;11.18;;
40959;SDS011;27842;52.272;8.052;2022-12-26T00:18:47;22.45;;;11.60;;
40959;SDS011;27842;52.272;8.052;2022-12-26T00:21:13;21.77;;;11.18;;
40959;SDS011;27842;52.272;8.052;2022-12-26T00:23:40;21.77;;;10.70;;
40959;SDS011;27842;52.272;8.052;2022-12-26T00:26:10;20.35;;;9.93;;
40959;SDS011;27842;52.272;8.052;2022-12-26T00:28:39;21.95;;;9.98;;
40959;SDS011;27842;52.272;8.052;2022-12-26T00:31:07;19.35;;;9.75;;
40959;SDS011;27842;52.272;8.052;2022-12-26T00:33:37;20.00;;;9.60;;
40959;SDS011;27842;52.272;8.052;2022-12-26T00:36:03;20.48;;;10.50;;
40959;SDS011;27842;52.272;8.052;2022-12-26T00:38:36;20.80;;;10.27;;
40959;SDS011;27842;52.272;8.052;2022-12-26T00:41:03;20.50;;;9.73;;
40959;SDS011;27842;52.272;8.052;2022-12-26T00:43:29;19.67;;;9.38;;
40959;SDS011;27842;52.272;8.052;2022-12-26T00:45:55;19.33;;;9.48;;
40959;SDS011;27842;52.272;8.052;2022-12-26T00:48:20;18.88;;;8.57;;
40959;SDS011;27842;52.272;8.052;2022-12-26T00:50:46;19.23;;;8.93;;
40959;SDS011;27842;52.272;8.052;2022-12-26T00:53:12;19.23;;;9.15;;
40959;SDS011;27842;52.272;8.052;2022-12-26T00:55:37;18.42;;;8.75;;
40959;SDS011;27842;52.272;8.052;2022-12-26T00:58:03;18.83;;;9.45;;
40959;SDS011;27842;52.272;8.052;2022-12-26T01:00:29;20.48;;;9.68;;
40959;SDS011;27842;52.272;8.052;2022-12-26T01:02:54;20.48;;;10.00;;
40959;SDS011;27842;52.272;8.052;2022-12-26T01:05:20;21.05;;;9.57;;
40959;SDS011;27842;52.272;8.052;2022-12-26T01:07:46;19.48;;;9.60;;
40959;SDS011;27842;52.272;8.052;2022-12-26T01:10:11;21.23;;;10.27;;
40959;SDS011;27842;52.272;8.052;2022-12-26T01:12:38;21.27;;;10.38;;
40959;SDS011;27842;52.272;8.052;2022-12-26T01:15:04;21.52;;;11.15;;
40959;SDS011;27842;52.272;8.052;2022-12-26T01:17:30;24.60;;;12.70;;
40959;SDS011;27842;52.272;8.052;2022-12-26T01:19:56;24.13;;;12.70;;
40959;SDS011;27842;52.272;8.052;2022-12-26T01:22:22;23.02;;;12.02;;
40959;SDS011;27842;52.272;8.052;2022-12-26T01:24:49;22.75;;;12.50;;
40959;SDS011;27842;52.272;8.052;2022-12-26T01:27:21;22.40;;;12.68;;
40959;SDS011;27842;52.272;8.052;2022-12-26T01:29:48;24.17;;;12.52;;
40959;SDS011;27842;52.272;8.052;2022-12-26T01:32:14;25.15;;;13.20;;
40959;SDS011;27842;52.272;8.052;2022-12-26T01:34:39;24.40;;;13.43;;
40959;SDS011;27842;52.272;8.052;2022-12-26T01:37:05;24.30;;;14.25;;
40959;SDS011;27842;52.272;8.052;2022-12-26T01:39:31;30.45;;;14.32;;
40959;SDS011;27842;52.272;8.052;2022-12-26T01:41:57;25.40;;;14.75;;
40959;SDS011;27842;52.272;8.052;2022-12-26T01:47:47;24.20;;;13.30;;
40959;SDS011;27842;52.272;8.052;2022-12-26T01:50:34;23.08;;;13.55;;
40959;SDS011;27842;52.272;8.052;2022-12-26T01:53:12;24.85;;;13.20;;
40959;SDS011;27842;52.272;8.052;2022-12-26T01:55:46;23.85;;;13.38;;
40959;SDS011;27842;52.272;8.052;2022-12-26T01:58:16;22.88;;;13.00;;
40959;SDS011;27842;52.272;8.052;2022-12-26T02:00:47;26.40;;;14.50;;
40959;SDS011;27842;52.272;8.052;2022-12-26T02:03:13;24.20;;;13.10;;
40959;SDS011;27842;52.272;8.052;2022-12-26T02:05:57;24.67;;;14.15;;
40959;SDS011;27842;52.272;8.052;2022-12-26T02:08:29;25.00;;;13.82;;
40959;SDS011;27842;52.272;8.052;2022-12-26T02:13:48;22.55;;;12.55;;
40959;SDS011;27842;52.272;8.052;2022-12-26T02:16:14;23.25;;;12.98;;
40959;SDS011;27842;52.272;8.052;2022-12-26T02:18:41;23.27;;;12.98;;
40959;SDS011;27842;52.272;8.052;2022-12-26T02:39:58;22.75;;;12.50;;
40959;SDS011;27842;52.272;8.052;2022-12-26T02:45:39;21.70;;;12.25;;
40959;SDS011;27842;52.272;8.052;2022-12-26T02:54:32;22.27;;;11.93;;
40959;SDS011;27842;52.272;8.052;2022-12-26T03:00:58;20.92;;;12.05;;
40959;SDS011;27842;52.272;8.052;2022-12-26T03:03:47;21.45;;;12.32;;
40959;SDS011;27842;52.272;8.052;2022-12-26T03:06:34;20.52;;;11.10;;
40959;SDS011;27842;52.272;8.052;2022-12-26T03:09:24;19.83;;;10.93;;
40959;SDS011;27842;52.272;8.052;2022-12-26T03:15:17;20.63;;;10.70;;
40959;SDS011;27842;52.272;8.052;2022-12-26T03:18:01;19.40;;;10.05;;
40959;SDS011;27842;52.272;8.052;2022-12-26T03:20:32;19.80;;;11.18;;
40959;SDS011;27842;52.272;8.052;2022-12-26T03:23:00;19.38;;;10.88;;
40959;SDS011;27842;52.272;8.052;2022-12-26T03:28:50;18.77;;;9.75;;
40959;SDS011;27842;52.272;8.052;2022-12-26T03:31:16;19.98;;;10.50;;
40959;SDS011;27842;52.272;8.052;2022-12-26T03:33:43;19.27;;;10.43;;
40959;SDS011;27842;52.272;8.052;2022-12-26T03:39:16;19.77;;;10.43;;
40959;SDS011;27842;52.272;8.052;2022-12-26T03:42:31;20.48;;;10.68;;
40959;SDS011;27842;52.272;8.052;2022-12-26T03:51:14;20.58;;;10.63;;
40959;SDS011;27842;52.272;8.052;2022-12-26T03:54:10;22.23;;;11.32;;
40959;SDS011;27842;52.272;8.052;2022-12-26T03:56:58;20.95;;;11.20;;
40959;SDS011;27842;52.272;8.052;2022-12-26T03:59:52;19.60;;;10.85;;
40959;SDS011;27842;52.272;8.052;2022-12-26T04:02:44;21.55;;;10.48;;
40959;SDS011;27842;52.272;8.052;2022-12-26T04:05:30;19.30;;;9.82;;
40959;SDS011;27842;52.272;8.052;2022-12-26T04:08:23;19.30;;;10.20;;
40959;SDS011;27842;52.272;8.052;2022-12-26T04:11:33;20.08;;;10.05;;
40959;SDS011;27842;52.272;8.052;2022-12-26T04:14:30;19.38;;;9.85;;
40959;SDS011;27842;52.272;8.052;2022-12-26T04:17:20;19.45;;;9.85;;
40959;SDS011;27842;52.272;8.052;2022-12-26T04:22:59;20.27;;;10.38;;
40959;SDS011;27842;52.272;8.052;2022-12-26T04:25:51;20.85;;;10.60;;
40959;SDS011;27842;52.272;8.052;2022-12-26T04:28:42;19.88;;;9.70;;
40959;SDS011;27842;52.272;8.052;2022-12-26T04:31:28;20.90;;;10.18;;
40959;SDS011;27842;52.272;8.052;2022-12-26T04:34:20;21.15;;;10.55;;
40959;SDS011;27842;52.272;8.052;2022-12-26T04:37:14;21.33;;;10.48;;
40959;SDS011;27842;52.272;8.052;2022-12-26T04:40:04;21.40;;;11.15;;
40959;SDS011;27842;52.272;8.052;2022-12-26T04:45:37;20.98;;;10.77;;
40959;SDS011;27842;52.272;8.052;2022-12-26T04:48:02;21.38;;;10.93;;
40959;SDS011;27842;52.272;8.052;2022-12-26T04:50:50;20.80;;;10.55;;
40959;SDS011;27842;52.272;8.052;2022-12-26T04:53:17;22.63;;;11.15;;
40959;SDS011;27842;52.272;8.052;2022-12-26T04:55:43;22.98;;;11.45;;
40959;SDS011;27842;52.272;8.052;2022-12-26T04:58:09;23.23;;;11.63;;
40959;SDS011;27842;52.272;8.052;2022-12-26T05:00:35;23.10;;;11.57;;
40959;SDS011;27842;52.272;8.052;2022-12-26T05:03:01;23.70;;;12.32;;
40959;SDS011;27842;52.272;8.052;2022-12-26T05:05:46;23.77;;;11.65;;
40959;SDS011;27842;52.272;8.052;2022-12-26T05:08:34;24.10;;;12.52;;
40959;SDS011;27842;52.272;8.052;2022-12-26T05:11:20;22.98;;;11.85;;
40959;SDS011;27842;52.272;8.052;2022-12-26T05:13:45;24.10;;;11.25;;
40959;SDS011;27842;52.272;8.052;2022-12-26T05:16:11;24.27;;;12.48;;
40959;SDS011;27842;52.272;8.052;2022-12-26T05:18:55;22.25;;;11.02;;
40959;SDS011;27842;52.272;8.052;2022-12-26T05:21:39;22.85;;;11.60;;
40959;SDS011;27842;52.272;8.052;2022-12-26T05:24:25;23.92;;;12.07;;
40959;SDS011;27842;52.272;8.052;2022-12-26T05:27:16;23.33;;;11.55;;
40959;SDS011;27842;52.272;8.052;2022-12-26T05:30:00;22.27;;;11.15;;
40959;SDS011;27842;52.272;8.052;2022-12-26T05:32:26;22.58;;;11.80;;
40959;SDS011;27842;52.272;8.052;2022-12-26T05:35:10;23.63;;;12.60;;
40959;SDS011;27842;52.272;8.052;2022-12-26T05:37:35;23.35;;;12.38;;
40959;SDS011;27842;52.272;8.052;2022-12-26T05:40:04;25.10;;;12.57;;
40959;SDS011;27842;52.272;8.052;2022-12-26T05:44:55;25.85;;;14.32;;
40959;SDS011;27842;52.272;8.052;2022-12-26T05:47:21;24.85;;;13.75;;
40959;SDS011;27842;52.272;8.052;2022-12-26T05:49:47;24.38;;;13.00;;
40959;SDS011;27842;52.272;8.052;2022-12-26T05:52:12;25.15;;;13.95;;
40959;SDS011;27842;52.272;8.052;2022-12-26T05:54:38;24.23;;;13.77;;
40959;SDS011;27842;52.272;8.052;2022-12-26T05:57:03;25.58;;;13.02;;
40959;SDS011;27842;52.272;8.052;2022-12-26T05:59:29;23.25;;;13.25;;
40959;SDS011;27842;52.272;8.052;2022-12-26T06:01:54;25.20;;;12.60;;
40959;SDS011;27842;52.272;8.052;2022-12-26T06:04:20;24.17;;;12.55;;
40959;SDS011;27842;52.272;8.052;2022-12-26T06:06:45;22.15;;;11.68;;
40959;SDS011;27842;52.272;8.052;2022-12-26T06:09:11;22.48;;;12.13;;
40959;SDS011;27842;52.272;8.052;2022-12-26T06:11:37;22.00;;;11.75;;
40959;SDS011;27842;52.272;8.052;2022-12-26T06:14:02;22.92;;;12.40;;
40959;SDS011;27842;52.272;8.052;2022-12-26T06:16:28;23.13;;;12.93;;
40959;SDS011;27842;52.272;8.052;2022-12-26T06:18:54;23.90;;;12.55;;
40959;SDS011;27842;52.272;8.052;2022-12-26T06:21:20;22.95;;;12.52;;
40959;SDS011;27842;52.272;8.052;2022-12-26T06:23:46;23.65;;;13.25;;
40959;SDS011;27842;52.272;8.052;2022-12-26T06:26:12;24.33;;;13.63;;
40959;SDS011;27842;52.272;8.052;2022-12-26T06:28:38;22.67;;;12.15;;
40959;SDS011;27842;52.272;8.052;2022-12-26T06:31:06;23.17;;;13.18;;
40959;SDS011;27842;52.272;8.052;2022-12-26T06:33:33;25.80;;;14.05;;
40959;SDS011;27842;52.272;8.052;2022-12-26T06:36:06;23.77;;;13.23;;
40959;SDS011;27842;52.272;8.052;2022-12-26T06:38:36;25.15;;;13.80;;
40959;SDS011;27842;52.272;8.052;2022-12-26T06:41:06;24.65;;;13.98;;
40959;SDS011;27842;52.272;8.052;2022-12-26T06:43:32;24.75;;;13.88;;
40959;SDS011;27842;52.272;8.052;2022-12-26T06:45:58;24.30;;;13.75;;
40959;SDS011;27842;52.272;8.052;2022-12-26T06:48:26;25.38;;;14.75;;
40959;SDS011;27842;52.272;8.052;2022-12-26T06:50:52;26.48;;;15.40;;
40959;SDS011;27842;52.272;8.052;2022-12-26T06:53:21;26.65;;;15.60;;
40959;SDS011;27842;52.272;8.052;2022-12-26T06:55:48;26.98;;;15.98;;
40959;SDS011;27842;52.272;8.052;2022-12-26T06:58:14;27.73;;;15.98;;
40959;SDS011;27842;52.272;8.052;2022-12-26T07:00:41;27.83;;;16.50;;
40959;SDS011;27842;52.272;8.052;2022-12-26T07:03:06;27.95;;;16.23;;
40959;SDS011;27842;52.272;8.052;2022-12-26T07:05:34;30.73;;;15.60;;
40959;SDS011;27842;52.272;8.052;2022-12-26T07:08:01;25.55;;;15.35;;
40959;SDS011;27842;52.272;8.052;2022-12-26T07:10:26;26.08;;;15.10;;
40959;SDS011;27842;52.272;8.052;2022-12-26T07:12:52;26.13;;;15.38;;
40959;SDS011;27842;52.272;8.052;2022-12-26T07:15:17;26.13;;;15.25;;
40959;SDS011;27842;52.272;8.052;2022-12-26T07:17:43;26.77;;;15.18;;
40959;SDS011;27842;52.272;8.052;2022-12-26T07:20:09;26.52;;;14.07;;
40959;SDS011;27842;52.272;8.052;2022-12-26T07:22:35;27.65;;;14.65;;
40959;SDS011;27842;52.272;8.052;2022-12-26T07:25:00;24.85;;;13.82;;
40959;SDS011;27842;52.272;8.052;2022-12-26T07:27:26;24.17;;;14.70;;
40959;SDS011;27842;52.272;8.052;2022-12-26T07:29:51;22.77;;;13.73;;
40959;SDS011;27842;52.272;8.052;2022-12-26T07:32:17;25.02;;;14.70;;
40959;SDS011;27842;52.272;8.052;2022-12-26T07:34:42;23.83;;;13.73;;
40959;SDS011;27842;52.272;8.052;2022-12-26T07:37:08;21.75;;;13.10;;
40959;SDS011;27842;52.272;8.052;2022-12-26T07:39:34;24.20;;;13.07;;
40959;SDS011;27842;52.272;8.052;2022-12-26T07:42:01;23.20;;;13.05;;
40959;SDS011;27842;52.272;8.052;2022-12-26T07:44:28;22.60;;;12.25;;
40959;SDS011;27842;52.272;8.052;2022-12-26T07:46:56;20.45;;;11.50;;
40959;SDS011;27842;52.272;8.052;2022-12-26T07:49:22;20.33;;;11.07;;
40959;SDS011;27842;52.272;8.052;2022-12-26T07:51:48;20.65;;;11.05;;
40959;SDS011;27842;52.272;8.052;2022-12-26T07:54:14;19.58;;;10.38;;
40959;SDS011;27842;52.272;8.052;2022-12-26T07:56:39;20.10;;;11.23;;
40959;SDS011;27842;52.272;8.052;2022-12-26T07:59:06;20.27;;;11.20;;
40959;SDS011;27842;52.272;8.052;2022-12-26T08:01:35;20.15;;;10.52;;
40959;SDS011;27842;52.272;8.052;2022-12-26T08:04:01;21.00;;;11.40;;
40959;SDS011;27842;52.272;8.052;2022-12-26T08:06:26;19.67;;;10.07;;
40959;SDS011;27842;52.272;8.052;2022-12-26T08:08:52;18.55;;;9.73;;
40959;SDS011;27842;52.272;8.052;2022-12-26T08:11:19;18.83;;;9.90;;
40959;SDS011;27842;52.272;8.052;2022-12-26T08:13:46;18.73;;;9.35;;
40959;SDS011;27842;52.272;8.052;2022-12-26T08:16:12;17.42;;;8.88;;
40959;SDS011;27842;52.272;8.052;2022-12-26T08:18:39;17.85;;;8.65;;
40959;SDS011;27842;52.272;8.052;2022-12-26T08:21:04;18.33;;;9.40;;
40959;SDS011;27842;52.272;8.052;2022-12-26T08:23:30;17.67;;;9.10;;
40959;SDS011;27842;52.272;8.052;2022-12-26T08:25:55;17.48;;;9.32;;
40959;SDS011;27842;52.272;8.052;2022-12-26T08:28:21;16.23;;;8.45;;
40959;SDS011;27842;52.272;8.052;2022-12-26T08:30:47;17.60;;;8.32;;
40959;SDS011;27842;52.272;8.052;2022-12-26T08:33:14;17.35;;;8.43;;
40959;SDS011;27842;52.272;8.052;2022-12-26T08:35:40;17.13;;;8.30;;
40959;SDS011;27842;52.272;8.052;2022-12-26T08:38:05;16.70;;;8.25;;
40959;SDS011;27842;52.272;8.052;2022-12-26T08:40:31;16.30;;;8.23;;
40959;SDS011;27842;52.272;8.052;2022-12-26T08:42:57;17.00;;;8.38;;
40959;SDS011;27842;52.272;8.052;2022-12-26T08:45:23;16.98;;;7.70;;
40959;SDS011;27842;52.272;8.052;2022-12-26T08:47:49;17.40;;;8.02;;
40959;SDS011;27842;52.272;8.052;2022-12-26T08:50:15;17.23;;;8.48;;
40959;SDS011;27842;52.272;8.052;2022-12-26T08:52:41;17.65;;;7.47;;
40959;SDS011;27842;52.272;8.052;2022-12-26T08:55:07;16.88;;;7.47;;
40959;SDS011;27842;52.272;8.052;2022-12-26T08:57:33;15.85;;;7.63;;
40959;SDS011;27842;52.272;8.052;2022-12-26T08:59:59;15.75;;;6.82;;
40959;SDS011;27842;52.272;8.052;2022-12-26T09:02:24;14.45;;;6.53;;
40959;SDS011;27842;52.272;8.052;2022-12-26T09:04:50;15.88;;;6.50;;
40959;SDS011;27842;52.272;8.052;2022-12-26T09:07:16;14.15;;;6.35;;
40959;SDS011;27842;52.272;8.052;2022-12-26T09:09:41;14.43;;;6.60;;
40959;SDS011;27842;52.272;8.052;2022-12-26T09:12:08;16.92;;;6.68;;
40959;SDS011;27842;52.272;8.052;2022-12-26T09:14:33;15.75;;;6.45;;
40959;SDS011;27842;52.272;8.052;2022-12-26T09:16:59;14.48;;;5.95;;
40959;SDS011;27842;52.272;8.052;2022-12-26T09:19:26;14.05;;;6.28;;
40959;SDS011;27842;52.272;8.052;2022-12-26T09:21:53;15.02;;;6.32;;
40959;SDS011;27842;52.272;8.052;2022-12-26T09:24:40;13.77;;;5.70;;
40959;SDS011;27842;52.272;8.052;2022-12-26T09:27:05;16.08;;;5.43;;
40959;SDS011;27842;52.272;8.052;2022-12-26T09:29:31;14.73;;;5.60;;
40959;SDS011;27842;52.272;8.052;2022-12-26T09:31:57;16.38;;;6.75;;
40959;SDS011;27842;52.272;8.052;2022-12-26T09:34:22;15.85;;;5.75;;
40959;SDS011;27842;52.272;8.052;2022-12-26T09:36:48;15.60;;;5.80;;
40959;SDS011;27842;52.272;8.052;2022-12-26T09:39:14;16.33;;;5.22;;
40959;SDS011;27842;52.272;8.052;2022-12-26T09:41:58;13.75;;;6.40;;
40959;SDS011;27842;52.272;8.052;2022-12-26T09:44:47;13.45;;;5.22;;
40959;SDS011;27842;52.272;8.052;2022-12-26T09:50:14;14.85;;;4.90;;
40959;SDS011;27842;52.272;8.052;2022-12-26T09:52:52;13.18;;;4.68;;
40959;SDS011;27842;52.272;8.052;2022-12-26T09:58:10;11.75;;;4.50;;
40959;SDS011;27842;52.272;8.052;2022-12-26T10:00:53;12.75;;;4.78;;
40959;SDS011;27842;52.272;8.052;2022-12-26T10:03:24;11.75;;;5.03;;
40959;SDS011;27842;52.272;8.052;2022-12-26T10:11:09;10.48;;;4.30;;
40959;SDS011;27842;52.272;8.052;2022-12-26T10:13:59;10.45;;;3.75;;
40959;SDS011;27842;52.272;8.052;2022-12-26T10:24:52;6.93;;;3.17;;
40959;SDS011;27842;52.272;8.052;2022-12-26T10:27:20;9.38;;;3.28;;
40959;SDS011;27842;52.272;8.052;2022-12-26T10:29:52;12.60;;;3.20;;
40959;SDS011;27842;52.272;8.052;2022-12-26T10:34:50;8.98;;;2.97;;
40959;SDS011;27842;52.272;8.052;2022-12-26T10:37:24;12.52;;;3.05;;
40959;SDS011;27842;52.272;8.052;2022-12-26T10:42:59;8.27;;;2.95;;
40959;SDS011;27842;52.272;8.052;2022-12-26T10:48:30;9.05;;;2.90;;
40959;SDS011;27842;52.272;8.052;2022-12-26T10:50:56;9.20;;;3.08;;
40959;SDS011;27842;52.272;8.052;2022-12-26T10:53:22;9.15;;;3.10;;
40959;SDS011;27842;52.272;8.052;2022-12-26T10:55:47;10.07;;;3.00;;
40959;SDS011;27842;52.272;8.052;2022-12-26T10:58:15;9.30;;;2.97;;
40959;SDS011;27842;52.272;8.052;2022-12-26T11:00:44;9.80;;;2.80;;
40959;SDS011;27842;52.272;8.052;2022-12-26T11:03:11;7.47;;;2.58;;
40959;SDS011;27842;52.272;8.052;2022-12-26T11:05:41;7.55;;;2.40;;
40959;SDS011;27842;52.272;8.052;2022-12-26T11:08:16;9.68;;;2.80;;
40959;SDS011;27842;52.272;8.052;2022-12-26T11:11:07;9.90;;;2.70;;
40959;SDS011;27842;52.272;8.052;2022-12-26T11:13:38;8.38;;;2.75;;
40959;SDS011;27842;52.272;8.052;2022-12-26T11:16:10;12.07;;;3.58;;
40959;SDS011;27842;52.272;8.052;2022-12-26T11:18:46;13.02;;;3.78;;
40959;SDS011;27842;52.272;8.052;2022-12-26T11:23:46;11.32;;;3.65;;
40959;SDS011;27842;52.272;8.052;2022-12-26T11:26:23;9.77;;;2.75;;
40959;SDS011;27842;52.272;8.052;2022-12-26T11:29:36;11.27;;;3.38;;
40959;SDS011;27842;52.272;8.052;2022-12-26T11:31:57;11.60;;;3.35;;
40959;SDS011;27842;52.272;8.052;2022-12-26T11:34:37;10.18;;;3.40;;
40959;SDS011;27842;52.272;8.052;2022-12-26T11:37:26;10.73;;;3.22;;
40959;SDS011;27842;52.272;8.052;2022-12-26T11:39:54;8.02;;;2.88;;
40959;SDS011;27842;52.272;8.052;2022-12-26T11:42:21;8.70;;;2.88;;
40959;SDS011;27842;52.272;8.052;2022-12-26T11:44:49;11.95;;;3.00;;
40959;SDS011;27842;52.272;8.052;2022-12-26T11:47:18;12.68;;;3.33;;
40959;SDS011;27842;52.272;8.052;2022-12-26T11:54:58;12.23;;;3.47;;
40959;SDS011;27842;52.272;8.052;2022-12-26T11:57:26;12.88;;;2.95;;
40959;SDS011;27842;52.272;8.052;2022-12-26T12:00:16;7.15;;;2.40;;
40959;SDS011;27842;52.272;8.052;2022-12-26T12:02:43;9.85;;;2.78;;
40959;SDS011;27842;52.272;8.052;2022-12-26T12:05:14;7.35;;;2.60;;
40959;SDS011;27842;52.272;8.052;2022-12-26T12:07:59;15.63;;;3.30;;
40959;SDS011;27842;52.272;8.052;2022-12-26T12:10:55;12.48;;;3.38;;
40959;SDS011;27842;52.272;8.052;2022-12-26T12:16:25;8.15;;;2.08;;
40959;SDS011;27842;52.272;8.052;2022-12-26T12:19:03;10.23;;;2.78;;
40959;SDS011;27842;52.272;8.052;2022-12-26T12:36:11;4.07;;;1.55;;
40959;SDS011;27842;52.272;8.052;2022-12-26T12:41:34;8.05;;;2.00;;
40959;SDS011;27842;52.272;8.052;2022-12-26T12:55:39;10.55;;;1.95;;
40959;SDS011;27842;52.272;8.052;2022-12-26T13:01:11;9.77;;;1.92;;
40959;SDS011;27842;52.272;8.052;2022-12-26T13:03:44;13.77;;;2.10;;
40959;SDS011;27842;52.272;8.052;2022-12-26T13:06:15;13.27;;;2.42;;
40959;SDS011;27842;52.272;8.052;2022-12-26T13:14:15;14.13;;;2.70;;
40959;SDS011;27842;52.272;8.052;2022-12-26T13:16:52;17.20;;;2.50;;
40959;SDS011;27842;52.272;8.052;2022-12-26T13:19:23;13.05;;;2.30;;
40959;SDS011;27842;52.272;8.052;2022-12-26T13:21:52;15.13;;;2.05;;
40959;SDS011;27842;52.272;8.052;2022-12-26T13:24:30;9.13;;;2.28;;
40959;SDS011;27842;52.272;8.052;2022-12-26T13:27:08;15.82;;;2.83;;
40959;SDS011;27842;52.272;8.052;2022-12-26T13:29:55;12.68;;;2.20;;
40959;SDS011;27842;52.272;8.052;2022-12-26T13:34:53;11.25;;;2.45;;
40959;SDS011;27842;52.272;8.052;2022-12-26T13:40:24;16.33;;;3.30;;
40959;SDS011;27842;52.272;8.052;2022-12-26T13:45:50;12.52;;;2.75;;
40959;SDS011;27842;52.272;8.052;2022-12-26T13:53:30;12.40;;;1.90;;
40959;SDS011;27842;52.272;8.052;2022-12-26T13:55:58;10.10;;;2.20;;
40959;SDS011;27842;52.272;8.052;2022-12-26T14:04:17;10.57;;;1.70;;
40959;SDS011;27842;52.272;8.052;2022-12-26T14:09:33;11.95;;;1.88;;
40959;SDS011;27842;52.272;8.052;2022-12-26T14:12:19;12.13;;;1.85;;
40959;SDS011;27842;52.272;8.052;2022-12-26T14:20:57;15.07;;;2.15;;
40959;SDS011;27842;52.272;8.052;2022-12-26T14:23:45;13.77;;;2.10;;
40959;SDS011;27842;52.272;8.052;2022-12-26T14:32:32;10.88;;;1.83;;
40959;SDS011;27842;52.272;8.052;2022-12-26T14:38:16;10.85;;;2.30;;
40959;SDS011;27842;52.272;8.052;2022-12-26T14:45:57;14.18;;;2.72;;
40959;SDS011;27842;52.272;8.052;2022-12-26T14:53:29;11.38;;;1.95;;
40959;SDS011;27842;52.272;8.052;2022-12-26T14:58:44;10.68;;;1.80;;
40959;SDS011;27842;52.272;8.052;2022-12-26T15:03:39;12.07;;;2.42;;
40959;SDS011;27842;52.272;8.052;2022-12-26T15:08:48;11.98;;;2.22;;
40959;SDS011;27842;52.272;8.052;2022-12-26T15:11:37;10.57;;;2.22;;
40959;SDS011;27842;52.272;8.052;2022-12-26T15:20:26;13.75;;;2.58;;
40959;SDS011;27842;52.272;8.052;2022-12-26T15:28:42;10.77;;;2.80;;
40959;SDS011;27842;52.272;8.052;2022-12-26T15:45:43;16.85;;;2.90;;
40959;SDS011;27842;52.272;8.052;2022-12-26T15:48:28;16.63;;;2.50;;
40959;SDS011;27842;52.272;8.052;2022-12-26T15:51:06;14.65;;;3.13;;
40959;SDS011;27842;52.272;8.052;2022-12-26T15:56:20;18.23;;;3.50;;
40959;SDS011;27842;52.272;8.052;2022-12-26T16:01:58;16.60;;;3.15;;
40959;SDS011;27842;52.272;8.052;2022-12-26T16:04:31;11.25;;;2.25;;
40959;SDS011;27842;52.272;8.052;2022-12-26T16:09:54;17.58;;;3.28;;
40959;SDS011;27842;52.272;8.052;2022-12-26T16:12:31;16.52;;;3.42;;
40959;SDS011;27842;52.272;8.052;2022-12-26T16:17:34;15.55;;;2.78;;
40959;SDS011;27842;52.272;8.052;2022-12-26T16:20:14;18.58;;;3.00;;
40959;SDS011;27842;52.272;8.052;2022-12-26T16:23:04;20.10;;;3.00;;
40959;SDS011;27842;52.272;8.052;2022-12-26T16:25:30;12.98;;;3.50;;
40959;SDS011;27842;52.272;8.052;2022-12-26T16:27:56;16.73;;;4.05;;
40959;SDS011;27842;52.272;8.052;2022-12-26T16:30:24;20.40;;;4.82;;
40959;SDS011;27842;52.272;8.052;2022-12-26T16:32:53;19.23;;;5.20;;
40959;SDS011;27842;52.272;8.052;2022-12-26T16:35:24;19.52;;;4.05;;
40959;SDS011;27842;52.272;8.052;2022-12-26T16:38:02;21.75;;;4.10;;
40959;SDS011;27842;52.272;8.052;2022-12-26T16:40:39;18.97;;;4.50;;
40959;SDS011;27842;52.272;8.052;2022-12-26T16:45:41;20.03;;;3.37;;
40959;SDS011;27842;52.272;8.052;2022-12-26T16:48:10;21.10;;;5.10;;
40959;SDS011;27842;52.272;8.052;2022-12-26T16:50:44;19.77;;;5.00;;
40959;SDS011;27842;52.272;8.052;2022-12-26T16:53:22;18.90;;;4.63;;
40959;SDS011;27842;52.272;8.052;2022-12-26T16:56:12;24.60;;;6.10;;
40959;SDS011;27842;52.272;8.052;2022-12-26T17:01:38;21.90;;;5.10;;
40959;SDS011;27842;52.272;8.052;2022-12-26T17:04:26;20.60;;;5.25;;
40959;SDS011;27842;52.272;8.052;2022-12-26T17:06:53;20.80;;;5.30;;
40959;SDS011;27842;52.272;8.052;2022-12-26T17:09:22;22.27;;;4.72;;
40959;SDS011;27842;52.272;8.052;2022-12-26T17:11:53;19.90;;;4.38;;
40959;SDS011;27842;52.272;8.052;2022-12-26T17:14:23;21.08;;;4.20;;
40959;SDS011;27842;52.272;8.052;2022-12-26T17:19:27;13.70;;;3.58;;
40959;SDS011;27842;52.272;8.052;2022-12-26T17:24:39;20.20;;;3.97;;
40959;SDS011;27842;52.272;8.052;2022-12-26T17:27:08;17.40;;;3.53;;
40959;SDS011;27842;52.272;8.052;2022-12-26T17:29:52;19.23;;;3.80;;
40959;SDS011;27842;52.272;8.052;2022-12-26T17:32:36;19.25;;;3.65;;
40959;SDS011;27842;52.272;8.052;2022-12-26T17:35:10;17.02;;;3.10;;
40959;SDS011;27842;52.272;8.052;2022-12-26T17:37:38;16.15;;;3.85;;
40959;SDS011;27842;52.272;8.052;2022-12-26T17:40:17;19.38;;;5.07;;
40959;SDS011;27842;52.272;8.052;2022-12-26T17:42:48;21.13;;;5.27;;
40959;SDS011;27842;52.272;8.052;2022-12-26T17:45:16;19.02;;;4.78;;
40959;SDS011;27842;52.272;8.052;2022-12-26T17:47:48;19.37;;;4.27;;
40959;SDS011;27842;52.272;8.052;2022-12-26T17:50:15;20.10;;;4.05;;
40959;SDS011;27842;52.272;8.052;2022-12-26T17:52:41;20.17;;;4.40;;
40959;SDS011;27842;52.272;8.052;2022-12-26T17:55:12;16.42;;;3.60;;
40959;SDS011;27842;52.272;8.052;2022-12-26T17:57:40;20.35;;;4.75;;
40959;SDS011;27842;52.272;8.052;2022-12-26T18:00:12;20.42;;;4.60;;
40959;SDS011;27842;52.272;8.052;2022-12-26T18:02:43;21.17;;;4.20;;
40959;SDS011;27842;52.272;8.052;2022-12-26T18:05:08;18.58;;;3.85;;
40959;SDS011;27842;52.272;8.052;2022-12-26T18:07:34;18.92;;;4.45;;
40959;SDS011;27842;52.272;8.052;2022-12-26T18:10:00;19.35;;;4.38;;
40959;SDS011;27842;52.272;8.052;2022-12-26T18:12:26;19.00;;;4.60;;
40959;SDS011;27842;52.272;8.052;2022-12-26T18:14:52;16.70;;;3.53;;
40959;SDS011;27842;52.272;8.052;2022-12-26T18:17:17;19.90;;;3.60;;
40959;SDS011;27842;52.272;8.052;2022-12-26T18:19:43;14.93;;;3.38;;
40959;SDS011;27842;52.272;8.052;2022-12-26T18:22:14;15.65;;;3.28;;
40959;SDS011;27842;52.272;8.052;2022-12-26T18:24:41;20.25;;;3.28;;
40959;SDS011;27842;52.272;8.052;2022-12-26T18:27:08;13.98;;;2.80;;
40959;SDS011;27842;52.272;8.052;2022-12-26T18:29:54;15.20;;;3.07;;
40959;SDS011;27842;52.272;8.052;2022-12-26T18:32:24;18.97;;;3.73;;
40959;SDS011;27842;52.272;8.052;2022-12-26T18:34:51;17.95;;;3.90;;
40959;SDS011;27842;52.272;8.052;2022-12-26T18:37:18;16.17;;;3.40;;
40959;SDS011;27842;52.272;8.052;2022-12-26T18:39:44;17.10;;;3.00;;
40959;SDS011;27842;52.272;8.052;2022-12-26T18:42:11;19.37;;;3.40;;
40959;SDS011;27842;52.272;8.052;2022-12-26T18:44:38;15.50;;;3.47;;
40959;SDS011;27842;52.272;8.052;2022-12-26T18:47:04;18.25;;;2.90;;
40959;SDS011;27842;52.272;8.052;2022-12-26T18:49:29;13.05;;;3.03;;
40959;SDS011;27842;52.272;8.052;2022-12-26T18:51:55;17.08;;;3.88;;
40959;SDS011;27842;52.272;8.052;2022-12-26T18:54:21;22.30;;;5.20;;
40959;SDS011;27842;52.272;8.052;2022-12-26T18:56:46;17.17;;;4.65;;
40959;SDS011;27842;52.272;8.052;2022-12-26T18:59:12;17.17;;;3.40;;